Time;durP1;ratioP1;P1;durP2;ratioP2;P2;SDS_P1;SDS_P2;PMS_P1;PMS_P2;Temp;Humidity;BMP_temperature;BMP_pressure;BME280_temperature;BME280_humidity;BME280_pressure;Samples;Min_cycle;Max_cycle;Signal;HPM_P1;HPM_P2
2021/05/08 00:01:26;;;;;;;56.45;37.08;;;;;;;;;;4938158;28;20031;-63
2021/05/08 00:03:52;;;;;;;44.90;29.25;;;;;;;;;;4944437;28;20801;-59
2021/05/08 00:06:19;;;;;;;49.65;33.67;;;;;;;;;;4943946;28;20078;-63
2021/05/08 00:08:45;;;;;;;44.20;29.33;;;;;;;;;;4944478;28;20027;-55
2021/05/08 00:11:11;;;;;;;24.58;16.50;;;;;;;;;;4944293;28;20026;-61
2021/05/08 00:13:37;;;;;;;64.13;39.88;;;;;;;;;;4943997;28;20027;-61
2021/05/08 00:16:03;;;;;;;37.13;23.17;;;;;;;;;;4944030;28;20526;-54
2021/05/08 00:18:31;;;;;;;85.10;53.08;;;;;;;;;;4974470;28;20045;-65
2021/05/08 00:20:58;;;;;;;70.13;43.33;;;;;;;;;;4993269;28;20015;-67
2021/05/08 00:23:24;;;;;;;63.38;41.65;;;;;;;;;;4993494;28;20033;-56
2021/05/08 00:25:50;;;;;;;92.57;61.17;;;;;;;;;;4993731;28;20093;-57
2021/05/08 00:28:16;;;;;;;63.72;38.17;;;;;;;;;;4993450;28;20464;-67
2021/05/08 00:30:43;;;;;;;47.55;30.70;;;;;;;;;;4993487;28;20430;-67
2021/05/08 00:33:09;;;;;;;39.25;25.48;;;;;;;;;;4993643;28;20081;-67
2021/05/08 00:35:35;;;;;;;49.78;32.20;;;;;;;;;;4993254;28;20029;-67
2021/05/08 00:38:01;;;;;;;59.80;39.25;;;;;;;;;;4993440;28;20069;-67
2021/05/08 00:40:27;;;;;;;39.33;24.77;;;;;;;;;;4993410;28;20383;-66
2021/05/08 00:42:53;;;;;;;37.20;25.95;;;;;;;;;;4993243;28;20239;-64
2021/05/08 00:45:20;;;;;;;45.92;29.83;;;;;;;;;;4993447;28;20398;-65
2021/05/08 00:47:48;;;;;;;17.48;11.98;;;;;;;;;;4994774;28;20038;-67
2021/05/08 00:50:15;;;;;;;58.83;36.97;;;;;;;;;;4996761;28;20387;-64
2021/05/08 00:52:41;;;;;;;70.22;44.83;;;;;;;;;;4996833;28;20034;-58
2021/05/08 00:55:08;;;;;;;48.38;34.70;;;;;;;;;;4996821;28;20033;-65
2021/05/08 00:57:34;;;;;;;41.42;26.30;;;;;;;;;;4996881;28;20098;-69
2021/05/08 01:00:00;;;;;;;21.92;14.02;;;;;;;;;;4996720;28;20058;-67
2021/05/08 01:02:27;;;;;;;16.20;11.20;;;;;;;;;;4996520;28;20135;-66
2021/05/08 01:04:53;;;;;;;20.35;14.48;;;;;;;;;;4996391;28;20483;-66
2021/05/08 01:07:19;;;;;;;91.30;62.97;;;;;;;;;;4996497;28;20054;-70
2021/05/08 01:09:46;;;;;;;10.07;7.00;;;;;;;;;;4996427;28;20022;-62
2021/05/08 01:12:12;;;;;;;22.15;16.02;;;;;;;;;;4996637;28;20030;-62
2021/05/08 01:14:39;;;;;;;9.57;6.97;;;;;;;;;;4996411;28;20061;-67
2021/05/08 01:17:05;;;;;;;14.43;10.10;;;;;;;;;;4996326;28;20030;-64
2021/05/08 01:19:32;;;;;;;13.93;9.38;;;;;;;;;;4996273;28;20495;-66
2021/05/08 01:21:59;;;;;;;22.83;14.18;;;;;;;;;;4996229;28;20042;-68
2021/05/08 01:24:25;;;;;;;11.13;8.85;;;;;;;;;;4996146;28;20506;-63
2021/05/08 01:26:51;;;;;;;25.17;19.13;;;;;;;;;;4996176;28;20041;-65
2021/05/08 01:29:17;;;;;;;7.90;5.60;;;;;;;;;;4996178;28;20018;-67
2021/05/08 01:31:44;;;;;;;9.68;7.43;;;;;;;;;;4996285;28;20113;-63
2021/05/08 01:34:10;;;;;;;9.35;6.85;;;;;;;;;;4996150;28;20061;-69
2021/05/08 01:36:36;;;;;;;12.18;7.97;;;;;;;;;;4996021;28;20097;-70
2021/05/08 01:39:03;;;;;;;9.23;5.82;;;;;;;;;;4996132;28;20201;-64
2021/05/08 01:41:29;;;;;;;11.30;7.57;;;;;;;;;;4995933;28;20022;-65
2021/05/08 01:43:55;;;;;;;9.55;5.20;;;;;;;;;;4995899;28;20483;-55
2021/05/08 01:46:21;;;;;;;30.67;19.13;;;;;;;;;;4995713;28;20026;-63
2021/05/08 01:48:48;;;;;;;22.52;15.98;;;;;;;;;;4995867;28;20502;-64
2021/05/08 01:51:14;;;;;;;13.73;9.98;;;;;;;;;;4995748;28;20037;-64
2021/05/08 01:53:40;;;;;;;8.95;6.90;;;;;;;;;;4995701;28;20077;-64
2021/05/08 01:56:07;;;;;;;18.52;12.35;;;;;;;;;;4995827;28;20026;-63
2021/05/08 01:58:33;;;;;;;38.63;25.58;;;;;;;;;;4995316;28;20387;-64
2021/05/08 02:00:59;;;;;;;21.98;14.02;;;;;;;;;;4995090;28;20030;-65
2021/05/08 02:03:25;;;;;;;19.73;13.15;;;;;;;;;;4995369;28;20447;-63
2021/05/08 02:05:52;;;;;;;16.77;11.88;;;;;;;;;;4995569;28;20033;-54
2021/05/08 02:08:18;;;;;;;9.63;6.70;;;;;;;;;;4995344;28;20050;-67
2021/05/08 02:10:44;;;;;;;11.75;8.60;;;;;;;;;;4995509;28;20030;-65
2021/05/08 02:13:11;;;;;;;9.88;7.53;;;;;;;;;;4995398;28;20097;-54
2021/05/08 02:15:37;;;;;;;8.23;6.28;;;;;;;;;;4995244;28;20033;-55
2021/05/08 02:18:04;;;;;;;27.90;21.15;;;;;;;;;;4995105;28;20122;-55
2021/05/08 02:20:32;;;;;;;14.88;10.73;;;;;;;;;;4995039;28;20125;-63
2021/05/08 02:22:58;;;;;;;10.95;8.48;;;;;;;;;;4994987;28;20072;-62
2021/05/08 02:25:25;;;;;;;8.65;5.55;;;;;;;;;;4995114;28;20470;-63
2021/05/08 02:27:51;;;;;;;35.92;20.95;;;;;;;;;;4995196;28;20471;-64
2021/05/08 02:30:21;;;;;;;16.88;9.63;;;;;;;;;;4994998;28;20049;-64
2021/05/08 02:32:47;;;;;;;13.88;9.02;;;;;;;;;;4994963;28;20077;-64
2021/05/08 02:35:14;;;;;;;13.75;9.10;;;;;;;;;;4994719;28;20022;-64
2021/05/08 02:37:40;;;;;;;6.65;4.78;;;;;;;;;;4994880;28;20022;-64
2021/05/08 02:40:07;;;;;;;9.43;6.15;;;;;;;;;;4994752;28;20026;-64
2021/05/08 02:42:33;;;;;;;10.48;7.13;;;;;;;;;;4994820;28;20030;-63
2021/05/08 02:44:59;;;;;;;18.08;9.65;;;;;;;;;;4994954;28;20030;-63
2021/05/08 02:47:26;;;;;;;6.72;4.25;;;;;;;;;;4994663;28;20027;-64
2021/05/08 02:49:54;;;;;;;7.15;4.45;;;;;;;;;;4994657;28;20479;-63
2021/05/08 02:52:20;;;;;;;5.30;3.47;;;;;;;;;;4995083;28;20030;-63
2021/05/08 02:54:47;;;;;;;9.88;5.22;;;;;;;;;;4994681;28;20113;-63
2021/05/08 02:57:13;;;;;;;9.65;6.40;;;;;;;;;;4994657;28;20136;-59
2021/05/08 02:59:39;;;;;;;7.10;5.00;;;;;;;;;;4994878;28;20026;-55
2021/05/08 03:02:05;;;;;;;8.52;5.88;;;;;;;;;;4994631;28;20069;-62
2021/05/08 03:04:31;;;;;;;5.85;4.65;;;;;;;;;;4994612;28;20097;-63
2021/05/08 03:06:58;;;;;;;6.57;4.65;;;;;;;;;;4994148;28;20053;-63
2021/05/08 03:09:24;;;;;;;6.78;5.00;;;;;;;;;;4994577;28;20073;-63
2021/05/08 03:11:50;;;;;;;7.85;5.20;;;;;;;;;;4994416;28;20038;-63
2021/05/08 03:14:17;;;;;;;9.23;5.70;;;;;;;;;;4994199;28;20371;-55
2021/05/08 03:16:43;;;;;;;6.18;4.72;;;;;;;;;;4994136;28;20057;-62
2021/05/08 03:19:10;;;;;;;8.05;4.75;;;;;;;;;;4994350;28;20157;-63
2021/05/08 03:21:36;;;;;;;10.95;5.28;;;;;;;;;;4993973;28;20034;-65
2021/05/08 03:24:02;;;;;;;10.10;5.55;;;;;;;;;;4994148;28;20155;-63
2021/05/08 03:26:28;;;;;;;13.65;5.53;;;;;;;;;;4994159;28;20129;-63
2021/05/08 03:28:57;;;;;;;17.02;10.27;;;;;;;;;;4994112;28;20049;-63
2021/05/08 03:31:23;;;;;;;8.90;5.38;;;;;;;;;;4994115;28;20029;-60
2021/05/08 03:33:50;;;;;;;4.85;4.25;;;;;;;;;;4993999;28;20050;-63
2021/05/08 03:36:16;;;;;;;6.35;4.50;;;;;;;;;;4993953;28;20023;-63
2021/05/08 03:38:42;;;;;;;9.07;5.82;;;;;;;;;;4993864;28;20037;-63
2021/05/08 03:41:08;;;;;;;6.50;4.30;;;;;;;;;;4993897;28;20435;-62
2021/05/08 03:43:36;;;;;;;6.32;4.00;;;;;;;;;;4993876;28;20069;-63
2021/05/08 03:46:03;;;;;;;5.95;4.38;;;;;;;;;;4993755;28;20055;-65
2021/05/08 03:48:29;;;;;;;5.18;3.70;;;;;;;;;;4993748;28;20034;-64
2021/05/08 03:50:55;;;;;;;4.43;3.67;;;;;;;;;;4993735;28;20479;-56
2021/05/08 03:53:22;;;;;;;8.63;4.95;;;;;;;;;;4993884;28;20038;-64
2021/05/08 03:55:50;;;;;;;5.97;4.13;;;;;;;;;;4993975;28;20023;-63
2021/05/08 03:58:16;;;;;;;7.90;4.32;;;;;;;;;;4993760;28;20522;-65
2021/05/08 04:00:44;;;;;;;5.70;4.63;;;;;;;;;;4993876;28;20379;-64
2021/05/08 04:03:10;;;;;;;8.10;4.70;;;;;;;;;;4993691;28;20523;-65
2021/05/08 04:05:36;;;;;;;9.43;5.88;;;;;;;;;;4993701;28;20398;-66
2021/05/08 04:08:02;;;;;;;14.00;5.95;;;;;;;;;;4993604;28;20109;-65
2021/05/08 04:10:31;;;;;;;8.70;4.60;;;;;;;;;;4993682;28;20022;-64
2021/05/08 04:12:57;;;;;;;5.05;3.85;;;;;;;;;;4993938;28;20088;-66
2021/05/08 04:15:23;;;;;;;10.85;6.00;;;;;;;;;;4993770;28;20025;-66
2021/05/08 04:17:49;;;;;;;6.40;4.00;;;;;;;;;;4993712;28;20073;-66
2021/05/08 04:20:15;;;;;;;7.43;4.70;;;;;;;;;;4993721;28;20035;-67
2021/05/08 04:22:41;;;;;;;6.05;3.75;;;;;;;;;;4994788;28;20038;-57
2021/05/08 04:25:08;;;;;;;7.07;4.25;;;;;;;;;;4997379;28;20026;-65
2021/05/08 04:27:34;;;;;;;6.40;5.03;;;;;;;;;;4997412;28;20034;-55
2021/05/08 04:30:00;;;;;;;5.10;3.58;;;;;;;;;;4997213;28;20057;-64
2021/05/08 04:32:26;;;;;;;6.05;4.28;;;;;;;;;;4997389;28;20026;-65
2021/05/08 04:34:52;;;;;;;4.43;3.58;;;;;;;;;;4997176;28;20026;-65
2021/05/08 04:37:18;;;;;;;5.65;3.90;;;;;;;;;;4997098;28;20146;-65
2021/05/08 04:39:44;;;;;;;6.15;4.15;;;;;;;;;;4997331;28;20038;-67
2021/05/08 04:42:10;;;;;;;4.43;3.60;;;;;;;;;;4997094;28;20507;-60
2021/05/08 04:44:36;;;;;;;5.40;3.90;;;;;;;;;;4997062;28;20058;-62
2021/05/08 04:47:04;;;;;;;5.85;4.15;;;;;;;;;;4996884;28;20057;-61
2021/05/08 04:49:30;;;;;;;4.78;3.55;;;;;;;;;;4996996;28;20113;-63
2021/05/08 04:51:56;;;;;;;4.55;3.97;;;;;;;;;;4996708;28;20356;-62
2021/05/08 04:54:23;;;;;;;3.60;2.80;;;;;;;;;;4996973;28;20027;-60
2021/05/08 04:56:49;;;;;;;4.13;3.53;;;;;;;;;;4997004;28;20030;-63
2021/05/08 04:59:15;;;;;;;5.43;3.42;;;;;;;;;;4996928;28;20352;-64
2021/05/08 05:01:41;;;;;;;10.30;5.38;;;;;;;;;;4996664;28;20050;-63
2021/05/08 05:04:07;;;;;;;5.38;4.15;;;;;;;;;;4996806;28;20030;-64
2021/05/08 05:06:33;;;;;;;5.97;4.20;;;;;;;;;;4996404;28;20080;-64
2021/05/08 05:09:00;;;;;;;7.55;5.53;;;;;;;;;;4997102;28;20471;-64
2021/05/08 05:11:26;;;;;;;6.75;4.28;;;;;;;;;;4996526;28;20022;-63
2021/05/08 05:13:52;;;;;;;4.60;3.38;;;;;;;;;;4996558;28;20049;-56
2021/05/08 05:16:18;;;;;;;9.40;4.20;;;;;;;;;;4996471;28;20101;-65
2021/05/08 05:18:44;;;;;;;5.18;3.05;;;;;;;;;;4996622;28;20027;-65
2021/05/08 05:21:10;;;;;;;3.85;2.40;;;;;;;;;;4996209;28;20073;-64
2021/05/08 05:23:36;;;;;;;5.97;2.80;;;;;;;;;;4996285;28;20034;-63
2021/05/08 05:26:06;;;;;;;3.33;2.60;;;;;;;;;;4996394;28;20455;-59
2021/05/08 05:28:32;;;;;;;3.35;2.75;;;;;;;;;;4996442;28;20056;-65
2021/05/08 05:30:59;;;;;;;3.88;2.90;;;;;;;;;;4996313;28;20030;-60
2021/05/08 05:33:25;;;;;;;6.07;2.95;;;;;;;;;;4995753;28;20023;-62
2021/05/08 05:35:53;;;;;;;3.47;3.17;;;;;;;;;;4995409;28;20034;-64
2021/05/08 05:38:22;;;;;;;4.63;3.60;;;;;;;;;;4996288;28;20019;-62
2021/05/08 05:40:48;;;;;;;5.32;4.00;;;;;;;;;;4996193;28;20027;-55
2021/05/08 05:43:14;;;;;;;4.32;3.28;;;;;;;;;;4995823;28;20045;-65
2021/05/08 05:45:40;;;;;;;5.07;3.72;;;;;;;;;;4996004;28;20023;-65
2021/05/08 05:48:07;;;;;;;9.50;3.65;;;;;;;;;;4995808;28;20467;-55
2021/05/08 05:50:43;;;;;;;4.50;3.05;;;;;;;;;;4995692;28;20467;-66
2021/05/08 05:53:09;;;;;;;3.67;3.15;;;;;;;;;;4995737;28;20034;-66
2021/05/08 05:55:36;;;;;;;5.32;4.00;;;;;;;;;;4995680;28;20029;-62
2021/05/08 05:58:02;;;;;;;8.55;3.75;;;;;;;;;;4995732;28;20022;-68
2021/05/08 06:00:28;;;;;;;3.63;3.10;;;;;;;;;;4995624;28;20029;-67
2021/05/08 06:02:55;;;;;;;7.20;4.53;;;;;;;;;;4995640;28;20034;-67
2021/05/08 06:05:23;;;;;;;5.10;3.85;;;;;;;;;;4995444;28;20033;-67
2021/05/08 06:07:49;;;;;;;7.18;4.28;;;;;;;;;;4995507;28;20057;-66
2021/05/08 06:10:16;;;;;;;6.28;3.90;;;;;;;;;;4995404;28;20022;-66
2021/05/08 06:12:43;;;;;;;6.85;4.20;;;;;;;;;;4995690;28;20059;-66
2021/05/08 06:15:10;;;;;;;5.68;4.00;;;;;;;;;;4995503;28;20027;-65
2021/05/08 06:17:36;;;;;;;5.38;3.63;;;;;;;;;;4995388;28;20494;-67
2021/05/08 06:20:03;;;;;;;7.35;3.85;;;;;;;;;;4995274;28;20022;-66
2021/05/08 06:22:29;;;;;;;4.32;3.30;;;;;;;;;;4995163;28;20122;-65
2021/05/08 06:24:55;;;;;;;5.35;3.83;;;;;;;;;;4995175;28;20033;-65
2021/05/08 06:27:23;;;;;;;6.18;3.40;;;;;;;;;;4995091;28;20030;-56
2021/05/08 06:29:49;;;;;;;5.93;3.70;;;;;;;;;;4995163;28;20037;-61
2021/05/08 06:32:15;;;;;;;6.30;3.50;;;;;;;;;;4995243;28;20027;-64
2021/05/08 06:34:41;;;;;;;4.30;3.47;;;;;;;;;;4994998;28;20490;-64
2021/05/08 06:37:07;;;;;;;4.80;3.67;;;;;;;;;;4995017;28;20105;-66
2021/05/08 06:39:34;;;;;;;5.38;3.20;;;;;;;;;;4995062;28;20026;-62
2021/05/08 06:42:00;;;;;;;7.57;4.93;;;;;;;;;;4994709;28;20485;-58
2021/05/08 06:44:28;;;;;;;9.95;6.80;;;;;;;;;;4994980;28;20105;-65
2021/05/08 06:46:58;;;;;;;13.02;7.25;;;;;;;;;;4994441;28;20392;-56
2021/05/08 06:49:24;;;;;;;20.42;12.85;;;;;;;;;;4994815;28;20034;-64
2021/05/08 06:51:50;;;;;;;18.75;12.30;;;;;;;;;;4994626;28;20026;-64
2021/05/08 06:54:18;;;;;;;10.68;7.65;;;;;;;;;;4994620;28;20036;-65
2021/05/08 06:56:45;;;;;;;14.52;9.15;;;;;;;;;;4994673;28;20030;-56
2021/05/08 06:59:13;;;;;;;10.95;7.13;;;;;;;;;;4994534;28;20105;-66
2021/05/08 07:01:39;;;;;;;9.20;5.57;;;;;;;;;;4994648;28;20030;-56
2021/05/08 07:04:05;;;;;;;10.43;5.97;;;;;;;;;;4994411;28;20042;-66
2021/05/08 07:06:31;;;;;;;11.43;6.53;;;;;;;;;;4994219;28;20023;-66
2021/05/08 07:08:57;;;;;;;7.75;5.25;;;;;;;;;;4994487;28;20058;-66
2021/05/08 07:11:26;;;;;;;9.65;6.00;;;;;;;;;;4994391;28;20100;-65
2021/05/08 07:13:52;;;;;;;11.55;6.60;;;;;;;;;;4994972;28;20490;-67
2021/05/08 07:16:18;;;;;;;7.50;6.13;;;;;;;;;;4994248;28;20101;-56
2021/05/08 07:18:44;;;;;;;8.85;5.80;;;;;;;;;;4994140;28;20042;-68
2021/05/08 07:21:10;;;;;;;8.88;6.35;;;;;;;;;;4994082;28;20026;-55
2021/05/08 07:23:36;;;;;;;8.45;6.13;;;;;;;;;;4994058;28;20479;-66
2021/05/08 07:26:02;;;;;;;9.13;6.15;;;;;;;;;;4994200;28;20030;-66
2021/05/08 07:28:29;;;;;;;9.05;7.40;;;;;;;;;;4994084;28;20096;-68
2021/05/08 07:30:55;;;;;;;8.63;6.45;;;;;;;;;;4994070;28;20022;-54
2021/05/08 07:33:22;;;;;;;8.00;6.43;;;;;;;;;;4994104;28;20026;-56
2021/05/08 07:35:49;;;;;;;6.40;5.38;;;;;;;;;;4993929;28;20029;-67
2021/05/08 07:38:15;;;;;;;8.88;5.75;;;;;;;;;;4994143;28;20027;-66
2021/05/08 07:40:41;;;;;;;5.13;4.63;;;;;;;;;;4994178;28;20022;-66
2021/05/08 07:43:08;;;;;;;6.93;4.55;;;;;;;;;;4993716;28;20038;-65
2021/05/08 07:45:35;;;;;;;8.13;5.70;;;;;;;;;;4993853;28;20030;-65
2021/05/08 07:48:01;;;;;;;5.68;4.28;;;;;;;;;;4993820;28;20109;-66
2021/05/08 07:50:28;;;;;;;8.00;4.47;;;;;;;;;;4993898;28;20498;-65
2021/05/08 07:52:54;;;;;;;12.18;8.70;;;;;;;;;;4993951;28;20490;-61
2021/05/08 07:55:20;;;;;;;62.38;37.15;;;;;;;;;;4993817;28;20459;-56
2021/05/08 07:57:46;;;;;;;31.75;21.48;;;;;;;;;;4995586;28;20018;-66
2021/05/08 08:00:13;;;;;;;37.80;16.17;;;;;;;;;;4997826;28;20022;-64
2021/05/08 08:02:40;;;;;;;23.08;13.90;;;;;;;;;;4997816;28;20394;-67
2021/05/08 08:05:06;;;;;;;31.50;17.65;;;;;;;;;;4997746;28;20076;-67
2021/05/08 08:07:32;;;;;;;23.38;11.68;;;;;;;;;;4997597;28;20100;-66
2021/05/08 08:10:01;;;;;;;30.23;16.83;;;;;;;;;;4997828;28;20023;-67
2021/05/08 08:12:27;;;;;;;18.13;10.48;;;;;;;;;;4997716;28;20026;-63
2021/05/08 08:14:53;;;;;;;63.67;33.78;;;;;;;;;;4997729;28;20066;-65
2021/05/08 08:17:28;;;;;;;39.97;23.60;;;;;;;;;;4997406;28;20033;-59
2021/05/08 08:19:54;;;;;;;78.20;48.75;;;;;;;;;;4997270;28;20042;-57
2021/05/08 08:22:20;;;;;;;108.18;73.70;;;;;;;;;;4997179;28;20034;-58
2021/05/08 08:24:46;;;;;;;133.95;93.43;;;;;;;;;;4997252;28;20545;-60
2021/05/08 08:27:12;;;;;;;166.32;107.93;;;;;;;;;;4997271;28;20052;-61
2021/05/08 08:29:39;;;;;;;55.65;31.08;;;;;;;;;;4997212;28;20077;-54
2021/05/08 08:32:06;;;;;;;43.97;24.95;;;;;;;;;;4979800;28;20027;-57
2021/05/08 08:34:32;;;;;;;41.47;25.17;;;;;;;;;;4997241;28;20400;-56
2021/05/08 08:36:58;;;;;;;56.90;32.75;;;;;;;;;;4997105;28;20356;-56
2021/05/08 08:39:25;;;;;;;234.52;184.30;;;;;;;;;;4997157;28;20034;-57
2021/05/08 08:41:53;;;;;;;30.02;16.08;;;;;;;;;;4997064;28;20121;-51
2021/05/08 08:44:19;;;;;;;23.55;13.90;;;;;;;;;;4996879;28;20038;-54
2021/05/08 08:46:46;;;;;;;19.60;12.55;;;;;;;;;;4996966;28;20027;-55
2021/05/08 08:49:13;;;;;;;79.85;51.10;;;;;;;;;;4996759;28;20033;-62
2021/05/08 08:51:39;;;;;;;68.20;44.53;;;;;;;;;;4989159;28;20031;-59
2021/05/08 08:54:06;;;;;;;89.65;18.67;;;;;;;;;;4966418;28;20149;-57
2021/05/08 08:56:39;;;;;;;348.38;40.13;;;;;;;;;;4968039;28;20143;-58
2021/05/08 08:59:15;;;;;;;55.80;16.05;;;;;;;;;;4967693;28;20023;-57
2021/05/08 09:01:42;;;;;;;52.80;28.20;;;;;;;;;;4966823;28;20019;-57
2021/05/08 09:04:11;;;;;;;36.50;18.63;;;;;;;;;;4967714;28;20043;-57
2021/05/08 09:06:41;;;;;;;18.60;12.70;;;;;;;;;;4966441;28;20039;-56
2021/05/08 09:09:08;;;;;;;35.22;15.70;;;;;;;;;;4965875;28;20022;-54
2021/05/08 09:11:46;;;;;;;7.63;5.70;;;;;;;;;;4967695;28;20053;-59
2021/05/08 09:14:15;;;;;;;17.60;8.23;;;;;;;;;;4967791;28;20472;-60
2021/05/08 09:17:00;;;;;;;12.00;7.75;;;;;;;;;;4966992;28;20464;-59
2021/05/08 09:19:26;;;;;;;21.15;9.30;;;;;;;;;;4967580;28;20102;-55
2021/05/08 09:21:52;;;;;;;16.88;7.47;;;;;;;;;;4965255;28;20037;-58
2021/05/08 09:24:18;;;;;;;5.25;4.75;;;;;;;;;;4967652;28;20031;-53
2021/05/08 09:26:48;;;;;;;27.95;13.43;;;;;;;;;;4962451;28;20030;-54
2021/05/08 09:29:24;;;;;;;11.43;5.80;;;;;;;;;;4967533;28;20114;-53
2021/05/08 09:31:53;;;;;;;8.45;5.18;;;;;;;;;;4965746;28;20082;-53
2021/05/08 09:34:20;;;;;;;7.50;5.07;;;;;;;;;;4965984;28;20118;-52
2021/05/08 09:36:53;;;;;;;19.15;14.07;;;;;;;;;;4967393;28;20045;-56
2021/05/08 09:39:35;;;;;;;19.75;11.32;;;;;;;;;;4968607;28;20023;-55
2021/05/08 09:42:01;;;;;;;13.23;8.98;;;;;;;;;;4976373;28;20110;-54
2021/05/08 09:44:27;;;;;;;9.88;5.85;;;;;;;;;;4976517;28;20035;-61
2021/05/08 09:46:55;;;;;;;15.45;11.50;;;;;;;;;;4976329;28;20113;-58
2021/05/08 09:49:22;;;;;;;36.90;20.67;;;;;;;;;;4976547;28;20030;-59
2021/05/08 09:52:04;;;;;;;35.25;17.85;;;;;;;;;;4976365;28;20546;-55
2021/05/08 09:54:30;;;;;;;12.35;8.20;;;;;;;;;;4976627;28;20050;-59
2021/05/08 09:56:56;;;;;;;33.13;11.65;;;;;;;;;;4976150;28;20022;-56
2021/05/08 09:59:36;;;;;;;39.20;22.38;;;;;;;;;;4976264;28;20054;-59
2021/05/08 10:02:02;;;;;;;24.73;14.82;;;;;;;;;;4976160;28;20027;-66
2021/05/08 10:04:33;;;;;;;36.65;19.73;;;;;;;;;;4976378;28;20041;-67
2021/05/08 10:07:06;;;;;;;24.58;15.70;;;;;;;;;;4975754;28;20051;-61
2021/05/08 10:09:33;;;;;;;27.60;12.75;;;;;;;;;;4976555;28;20419;-59
2021/05/08 10:12:00;;;;;;;25.48;14.13;;;;;;;;;;4976182;28;20073;-59
2021/05/08 10:14:26;;;;;;;15.05;8.88;;;;;;;;;;4967464;28;20023;-60
2021/05/08 10:16:53;;;;;;;78.13;50.38;;;;;;;;;;4968559;28;20388;-57
2021/05/08 10:19:19;;;;;;;41.15;27.17;;;;;;;;;;4975772;28;20113;-59
2021/05/08 10:21:46;;;;;;;61.95;42.97;;;;;;;;;;4965749;28;20039;-59
2021/05/08 10:24:13;;;;;;;52.55;33.47;;;;;;;;;;4964508;28;20042;-55
2021/05/08 10:26:39;;;;;;;21.92;16.13;;;;;;;;;;4953723;28;20078;-54
2021/05/08 10:29:05;;;;;;;22.27;12.70;;;;;;;;;;4949379;28;20510;-54
2021/05/08 10:31:32;;;;;;;8.50;6.97;;;;;;;;;;4934718;28;20395;-57
2021/05/08 10:33:58;;;;;;;21.23;13.93;;;;;;;;;;4950335;28;20156;-59
2021/05/08 10:36:43;;;;;;;18.13;9.77;;;;;;;;;;4949867;28;20026;-57
2021/05/08 10:39:09;;;;;;;17.20;8.50;;;;;;;;;;4949453;28;20026;-60
2021/05/08 10:42:01;;;;;;;12.30;9.40;;;;;;;;;;4950964;28;20063;-58
2021/05/08 10:44:46;;;;;;;13.23;9.10;;;;;;;;;;4946599;28;20186;-59
2021/05/08 10:47:15;;;;;;;31.75;20.25;;;;;;;;;;4945137;28;20101;-56
2021/05/08 10:49:41;;;;;;;43.03;29.40;;;;;;;;;;4945324;28;20384;-56
2021/05/08 10:52:07;;;;;;;21.10;15.35;;;;;;;;;;4945111;28;20762;-54
2021/05/08 10:54:43;;;;;;;44.50;31.40;;;;;;;;;;4945187;28;20160;-54
2021/05/08 10:57:19;;;;;;;20.83;14.93;;;;;;;;;;4945022;28;20044;-54
2021/05/08 11:00:01;;;;;;;114.57;83.75;;;;;;;;;;4944957;28;20105;-55
2021/05/08 11:02:43;;;;;;;225.20;134.35;;;;;;;;;;4944873;28;20773;-56
2021/05/08 11:05:25;;;;;;;115.07;73.40;;;;;;;;;;4946267;28;20073;-54
2021/05/08 11:07:51;;;;;;;10.35;7.80;;;;;;;;;;4945997;28;20054;-52
2021/05/08 11:10:36;;;;;;;6.68;5.97;;;;;;;;;;4945148;28;20040;-54
2021/05/08 11:13:05;;;;;;;10.55;7.30;;;;;;;;;;4944992;28;20035;-55
2021/05/08 11:16:03;;;;;;;39.05;23.90;;;;;;;;;;4945504;28;20800;-55
2021/05/08 11:18:37;;;;;;;60.22;45.50;;;;;;;;;;4945177;28;20039;-54
2021/05/08 11:21:03;;;;;;;38.90;26.88;;;;;;;;;;4946848;28;20043;-54
2021/05/08 11:23:41;;;;;;;45.95;32.55;;;;;;;;;;4944728;28;20031;-55
2021/05/08 11:26:29;;;;;;;74.60;49.15;;;;;;;;;;4944688;28;20054;-60
2021/05/08 11:28:58;;;;;;;63.00;46.47;;;;;;;;;;4945886;28;20134;-53
2021/05/08 11:31:31;;;;;;;80.63;55.55;;;;;;;;;;4946395;28;20401;-56
2021/05/08 11:34:19;;;;;;;83.88;57.25;;;;;;;;;;4944473;28;20030;-58
2021/05/08 11:36:48;;;;;;;17.73;12.98;;;;;;;;;;4944604;28;20039;-57
2021/05/08 11:39:14;;;;;;;67.90;43.28;;;;;;;;;;4945877;28;20031;-56
2021/05/08 11:41:41;;;;;;;18.55;14.20;;;;;;;;;;4944795;28;20119;-53
2021/05/08 11:44:07;;;;;;;39.20;24.92;;;;;;;;;;4944430;28;20031;-55
2021/05/08 11:46:34;;;;;;;22.00;14.13;;;;;;;;;;4944563;28;20377;-51
2021/05/08 11:49:01;;;;;;;11.00;5.88;;;;;;;;;;4945606;28;20766;-54
2021/05/08 11:51:27;;;;;;;5.72;5.15;;;;;;;;;;4945943;28;20142;-55
2021/05/08 11:54:13;;;;;;;11.38;9.15;;;;;;;;;;4944480;28;20109;-55
2021/05/08 11:56:39;;;;;;;25.10;11.77;;;;;;;;;;4945678;28;20479;-54
2021/05/08 11:59:07;;;;;;;24.25;11.85;;;;;;;;;;4944675;28;20091;-59
2021/05/08 12:01:38;;;;;;;14.60;8.85;;;;;;;;;;4944465;28;20027;-57
2021/05/08 12:04:07;;;;;;;42.05;28.60;;;;;;;;;;4944594;28;20042;-57
2021/05/08 12:06:34;;;;;;;55.90;41.78;;;;;;;;;;4944069;28;20416;-53
2021/05/08 12:09:10;;;;;;;31.48;20.88;;;;;;;;;;4944338;28;20062;-58
2021/05/08 12:11:37;;;;;;;23.20;14.85;;;;;;;;;;4943991;28;20033;-53
2021/05/08 12:14:13;;;;;;;11.85;9.52;;;;;;;;;;4944824;28;20046;-53
2021/05/08 12:16:40;;;;;;;18.48;14.23;;;;;;;;;;4947248;28;20435;-54
2021/05/08 12:19:06;;;;;;;6.38;5.78;;;;;;;;;;4948054;28;20045;-54
2021/05/08 12:21:35;;;;;;;10.60;8.68;;;;;;;;;;4944710;28;20023;-53
2021/05/08 12:24:01;;;;;;;33.05;23.40;;;;;;;;;;4943625;28;20077;-59
2021/05/08 12:26:27;;;;;;;13.38;9.48;;;;;;;;;;4944474;28;20027;-58
2021/05/08 12:28:54;;;;;;;35.95;21.88;;;;;;;;;;4945399;28;20487;-54
2021/05/08 12:31:25;;;;;;;19.75;11.52;;;;;;;;;;4944355;28;20026;-53
2021/05/08 12:33:52;;;;;;;24.40;16.65;;;;;;;;;;4944142;28;20039;-53
2021/05/08 12:36:20;;;;;;;22.15;13.18;;;;;;;;;;4943820;28;20027;-53
2021/05/08 12:38:49;;;;;;;7.70;5.78;;;;;;;;;;4943962;28;20064;-53
2021/05/08 12:41:39;;;;;;;34.70;20.77;;;;;;;;;;4944903;28;20028;-53
2021/05/08 12:44:06;;;;;;;77.75;52.60;;;;;;;;;;4945689;28;20039;-55
2021/05/08 12:46:55;;;;;;;73.68;48.10;;;;;;;;;;4947216;28;20034;-50
2021/05/08 12:49:22;;;;;;;44.50;28.73;;;;;;;;;;4939732;28;20470;-51
2021/05/08 12:51:48;;;;;;;41.88;28.45;;;;;;;;;;4947702;28;20038;-54
2021/05/08 12:54:18;;;;;;;38.28;25.40;;;;;;;;;;4947036;28;20062;-54
2021/05/08 12:56:44;;;;;;;23.80;16.45;;;;;;;;;;4947461;28;20069;-52
2021/05/08 12:59:10;;;;;;;32.58;20.13;;;;;;;;;;4947719;28;20030;-56
2021/05/08 13:01:38;;;;;;;33.08;22.88;;;;;;;;;;4947184;28;20037;-55
2021/05/08 13:04:06;;;;;;;51.42;32.20;;;;;;;;;;4948083;28;20093;-53
2021/05/08 13:06:35;;;;;;;28.98;19.65;;;;;;;;;;4947929;28;20065;-51
2021/05/08 13:09:01;;;;;;;12.40;8.77;;;;;;;;;;4947086;28;20057;-56
2021/05/08 13:11:34;;;;;;;22.85;13.40;;;;;;;;;;4947101;28;20042;-59
2021/05/08 13:14:21;;;;;;;14.18;8.90;;;;;;;;;;4947356;28;20027;-52
2021/05/08 13:16:48;;;;;;;18.02;11.82;;;;;;;;;;4947965;28;20042;-51
2021/05/08 13:19:16;;;;;;;19.52;11.80;;;;;;;;;;4948752;28;20035;-60
2021/05/08 13:21:42;;;;;;;27.52;18.23;;;;;;;;;;4947517;28;20039;-57
2021/05/08 13:24:09;;;;;;;50.03;30.60;;;;;;;;;;4948168;28;20039;-58
2021/05/08 13:26:35;;;;;;;48.28;30.20;;;;;;;;;;4947722;28;20019;-59
2021/05/08 13:29:01;;;;;;;15.98;10.32;;;;;;;;;;4928741;28;20398;-56
2021/05/08 13:31:27;;;;;;;12.80;7.47;;;;;;;;;;4947582;28;20031;-60
2021/05/08 13:33:53;;;;;;;13.65;8.38;;;;;;;;;;4947084;28;20560;-60
2021/05/08 13:36:19;;;;;;;19.10;11.80;;;;;;;;;;4946814;28;20431;-58
2021/05/08 13:38:49;;;;;;;38.83;23.35;;;;;;;;;;4945754;28;20506;-55
2021/05/08 13:41:15;;;;;;;96.13;65.18;;;;;;;;;;4946797;28;20035;-55
2021/05/08 13:43:44;;;;;;;47.42;29.05;;;;;;;;;;4946523;28;20110;-57
2021/05/08 13:46:10;;;;;;;58.03;24.48;;;;;;;;;;4947791;28;20074;-54
2021/05/08 13:48:37;;;;;;;74.63;38.65;;;;;;;;;;4946394;28;20752;-54
2021/05/08 13:51:04;;;;;;;59.17;33.53;;;;;;;;;;4947879;28;20022;-51
2021/05/08 13:53:34;;;;;;;55.20;36.38;;;;;;;;;;4947174;28;20018;-52
2021/05/08 13:56:01;;;;;;;277.88;201.50;;;;;;;;;;4945413;28;20094;-57
2021/05/08 13:58:27;;;;;;;170.77;109.38;;;;;;;;;;4946539;28;20035;-53
2021/05/08 14:00:53;;;;;;;19.75;12.68;;;;;;;;;;4946338;28;20885;-54
2021/05/08 14:03:19;;;;;;;24.35;12.82;;;;;;;;;;4947170;28;20035;-50
2021/05/08 14:05:45;;;;;;;8.52;5.88;;;;;;;;;;4946332;28;20031;-53
2021/05/08 14:08:11;;;;;;;12.63;6.78;;;;;;;;;;4947353;28;20047;-52
2021/05/08 14:10:37;;;;;;;13.93;7.25;;;;;;;;;;4946085;28;20716;-55
2021/05/08 14:13:03;;;;;;;13.27;7.53;;;;;;;;;;4945965;28;20023;-56
2021/05/08 14:15:30;;;;;;;19.65;9.77;;;;;;;;;;4946094;28;20210;-55
2021/05/08 14:17:56;;;;;;;10.60;6.47;;;;;;;;;;4945712;28;20031;-56
2021/05/08 14:20:22;;;;;;;23.85;17.80;;;;;;;;;;4945916;28;20094;-52
2021/05/08 14:22:48;;;;;;;9.80;5.95;;;;;;;;;;4945903;28;20031;-53
2021/05/08 14:25:14;;;;;;;5.38;4.85;;;;;;;;;;4945616;28;20090;-52
2021/05/08 14:27:40;;;;;;;10.52;8.43;;;;;;;;;;4945873;28;20027;-54
2021/05/08 14:30:11;;;;;;;22.88;17.00;;;;;;;;;;4946695;28;20164;-53
2021/05/08 14:32:37;;;;;;;11.80;8.95;;;;;;;;;;4939355;28;20038;-53